createdAt,value
2018-04-18T00:00:38.018Z,958.23
2018-04-18T00:01:38.019Z,958.27
2018-04-18T00:02:38.020Z,958.27
2018-04-18T00:03:38.005Z,958.26
2018-04-18T00:04:37.983Z,958.27
2018-04-18T00:05:37.989Z,958.26
2018-04-18T00:06:37.998Z,958.29
2018-04-18T00:07:37.992Z,958.31
2018-04-18T00:08:37.985Z,958.30
2018-04-18T00:09:37.977Z,958.31
2018-04-18T00:10:37.982Z,958.30
2018-04-18T00:11:37.987Z,958.31
2018-04-18T00:12:37.971Z,958.37
2018-04-18T00:13:37.968Z,958.33
2018-04-18T00:14:37.959Z,958.35
2018-04-18T00:15:37.947Z,958.35
2018-04-18T00:16:37.955Z,958.31
2018-04-18T00:17:37.954Z,958.34
2018-04-18T00:18:37.935Z,958.32
2018-04-18T00:19:37.950Z,958.29
2018-04-18T00:20:37.924Z,958.31
2018-04-18T00:21:37.913Z,958.34
2018-04-18T00:22:37.919Z,958.35
2018-04-18T00:23:37.930Z,958.33
2018-04-18T00:24:37.909Z,958.30
2018-04-18T00:25:37.912Z,958.31
2018-04-18T00:26:37.902Z,958.30
2018-04-18T00:27:37.901Z,958.30
2018-04-18T00:28:37.890Z,958.30
2018-04-18T00:29:37.904Z,958.35
2018-04-18T00:30:37.887Z,958.32
2018-04-18T00:31:37.875Z,958.32
2018-04-18T00:32:37.889Z,958.32
2018-04-18T00:33:37.880Z,958.27
2018-04-18T00:34:37.878Z,958.30
2018-04-18T00:35:37.878Z,958.31
2018-04-18T00:36:37.857Z,958.27
2018-04-18T00:37:37.858Z,958.27
2018-04-18T00:38:37.846Z,958.22
2018-04-18T00:39:37.848Z,958.25
2018-04-18T00:40:37.847Z,958.25
2018-04-18T00:41:37.868Z,958.25
2018-04-18T00:42:37.834Z,958.25
2018-04-18T00:43:37.872Z,958.25
2018-04-18T00:44:37.828Z,958.24
2018-04-18T00:45:37.838Z,958.25
2018-04-18T00:46:37.827Z,958.25
2018-04-18T00:47:37.818Z,958.22
2018-04-18T00:48:37.805Z,958.23
2018-04-18T00:49:37.811Z,958.19
2018-04-18T00:50:37.821Z,958.27
2018-04-18T00:51:37.797Z,958.24
2018-04-18T00:52:37.783Z,958.23
2018-04-18T00:53:37.790Z,958.23
2018-04-18T00:54:37.794Z,958.26
2018-04-18T00:55:37.811Z,958.24
2018-04-18T00:56:37.775Z,958.25
2018-04-18T00:57:37.780Z,958.28
2018-04-18T00:58:37.773Z,958.27
2018-04-18T00:59:37.766Z,958.26
2018-04-18T01:00:37.771Z,958.22
2018-04-18T01:01:37.775Z,958.23
2018-04-18T01:02:37.746Z,958.22
2018-04-18T01:03:37.756Z,958.27
2018-04-18T01:04:37.749Z,958.27
2018-04-18T01:05:37.738Z,958.25
2018-04-18T01:06:37.738Z,958.25
2018-04-18T01:07:37.729Z,958.27
2018-04-18T01:08:37.727Z,958.29
2018-04-18T01:09:37.742Z,958.27
2018-04-18T01:10:37.725Z,958.23
2018-04-18T01:11:37.713Z,958.23
2018-04-18T01:12:37.726Z,958.23
2018-04-18T01:13:37.705Z,958.24
2018-04-18T01:14:37.699Z,958.28
2018-04-18T01:15:37.689Z,958.23
2018-04-18T01:16:37.689Z,958.24
2018-04-18T01:17:37.688Z,958.22
2018-04-18T01:18:37.683Z,958.26
2018-04-18T01:19:37.678Z,958.20
2018-04-18T01:20:37.684Z,958.23
2018-04-18T01:21:37.668Z,958.25
2018-04-18T01:22:37.667Z,958.21
2018-04-18T01:23:37.659Z,958.25
2018-04-18T01:24:37.658Z,958.23
2018-04-18T01:25:37.649Z,958.24
2018-04-18T01:26:37.641Z,958.23
2018-04-18T01:27:37.650Z,958.21
2018-04-18T01:28:37.640Z,958.21
2018-04-18T01:29:37.629Z,958.23
2018-04-18T02:02:37.552Z,958.25
2018-04-18T02:03:37.513Z,958.29
2018-04-18T02:05:30.387Z,958.26
2018-04-18T02:06:30.362Z,958.27
2018-04-18T02:08:23.275Z,958.26
2018-04-18T02:09:23.224Z,958.25
2018-04-18T02:11:16.196Z,958.29
2018-04-18T02:12:16.162Z,958.24
2018-04-18T02:14:09.058Z,958.28
2018-04-18T02:15:09.036Z,958.30
2018-04-18T02:17:01.959Z,958.29
2018-04-18T02:18:01.919Z,958.31
2018-04-18T02:19:54.865Z,958.29
2018-04-18T02:20:54.846Z,958.28
2018-04-18T02:22:47.759Z,958.23
2018-04-18T02:23:47.724Z,958.28
2018-04-18T02:25:40.662Z,958.27
2018-04-18T02:26:40.640Z,958.29
2018-04-18T02:29:24.630Z,958.28
2018-04-18T02:30:24.606Z,958.30
2018-04-18T02:32:17.570Z,958.30
2018-04-18T02:33:17.552Z,958.29
2018-04-18T02:35:10.526Z,958.29
2018-04-18T02:36:10.507Z,958.29
2018-04-18T02:38:03.432Z,958.28
2018-04-18T02:39:03.391Z,958.30
2018-04-18T02:40:56.340Z,958.26
2018-04-18T02:41:56.276Z,958.25
2018-04-18T02:43:49.177Z,958.30
2018-04-18T02:44:49.160Z,958.26
2018-04-18T02:46:42.137Z,958.31
2018-04-18T02:47:42.117Z,958.28
2018-04-18T02:49:35.043Z,958.31
2018-04-18T02:50:34.996Z,958.26
2018-04-18T02:52:27.896Z,958.28
2018-04-18T02:53:27.880Z,958.30
2018-04-18T02:55:20.799Z,958.33
2018-04-18T02:56:20.773Z,958.28
2018-04-18T02:58:13.891Z,958.31
2018-04-18T02:59:13.709Z,958.33
2018-04-18T03:01:06.643Z,958.34
2018-04-18T03:02:06.607Z,958.30
2018-04-18T03:03:59.591Z,958.32
2018-04-18T03:04:59.538Z,958.35
2018-04-18T03:06:52.504Z,958.38
2018-04-18T03:07:52.475Z,958.35
2018-04-18T03:09:45.394Z,958.36
2018-04-18T03:10:45.402Z,958.36
2018-04-18T03:11:45.366Z,958.38
2018-04-18T03:12:45.375Z,958.39
2018-04-18T03:13:45.356Z,958.38
2018-04-18T03:14:45.351Z,958.33
2018-04-18T03:15:45.345Z,958.37
2018-04-18T03:16:45.340Z,958.38
2018-04-18T03:17:45.348Z,958.39
2018-04-18T03:18:45.328Z,958.38
2018-04-18T03:19:45.325Z,958.41
2018-04-18T03:20:45.317Z,958.38
2018-04-18T03:21:45.312Z,958.32
2018-04-18T03:22:45.318Z,958.38
2018-04-18T03:23:45.311Z,958.36
2018-04-18T03:24:45.305Z,958.36
2018-04-18T03:25:45.304Z,958.34
2018-04-18T03:26:45.299Z,958.39
2018-04-18T03:27:45.298Z,958.38
2018-04-18T03:28:45.295Z,958.36
2018-04-18T03:29:45.319Z,958.35
2018-04-18T03:30:45.286Z,958.36
2018-04-18T03:31:45.304Z,958.33
2018-04-18T03:32:45.267Z,958.35
2018-04-18T03:33:45.266Z,958.35
2018-04-18T03:34:45.271Z,958.36
2018-04-18T03:35:45.272Z,958.32
2018-04-18T03:36:45.253Z,958.35
2018-04-18T03:37:45.270Z,958.35
2018-04-18T03:38:45.250Z,958.36
2018-04-18T03:39:45.275Z,958.42
2018-04-18T03:40:45.252Z,958.36
2018-04-18T03:41:45.223Z,958.33
2018-04-18T03:42:45.225Z,958.36
2018-04-18T03:43:45.218Z,958.38
2018-04-18T03:44:45.218Z,958.36
2018-04-18T03:45:45.206Z,958.36
2018-04-18T03:46:45.200Z,958.36
2018-04-18T03:47:45.192Z,958.40
2018-04-18T03:48:45.187Z,958.35
2018-04-18T03:49:45.186Z,958.34
2018-04-18T03:50:45.177Z,958.38
2018-04-18T03:51:45.173Z,958.38
2018-04-18T03:52:45.168Z,958.38
2018-04-18T03:53:45.169Z,958.38
2018-04-18T03:54:45.167Z,958.37
2018-04-18T03:55:45.322Z,958.38
2018-04-18T03:56:45.152Z,958.42
2018-04-18T03:57:45.146Z,958.39
2018-04-18T03:58:45.163Z,958.42
2018-04-18T03:59:45.135Z,958.42
2018-04-18T04:00:45.133Z,958.46
2018-04-18T04:01:45.132Z,958.42
2018-04-18T04:02:45.191Z,958.44
2018-04-18T04:03:45.120Z,958.43
2018-04-18T04:04:45.207Z,958.43
2018-04-18T04:05:45.216Z,958.42
2018-04-18T04:06:45.117Z,958.42
2018-04-18T04:07:45.102Z,958.39
2018-04-18T04:08:45.091Z,958.43
2018-04-18T04:09:45.084Z,958.41
2018-04-18T04:10:45.076Z,958.44
2018-04-18T04:11:45.087Z,958.44
2018-04-18T04:12:45.068Z,958.44
2018-04-18T04:13:45.063Z,958.47
2018-04-18T04:14:45.060Z,958.48
2018-04-18T04:15:45.085Z,958.47
2018-04-18T04:16:45.072Z,958.47
2018-04-18T04:17:45.047Z,958.46
2018-04-18T04:18:45.039Z,958.47
2018-04-18T04:19:45.047Z,958.48
2018-04-18T04:20:45.035Z,958.51
2018-04-18T04:21:45.019Z,958.49
2018-04-18T04:22:45.016Z,958.48
2018-04-18T04:23:45.011Z,958.49
2018-04-18T04:24:45.112Z,958.50
2018-04-18T04:25:45.129Z,958.49
2018-04-18T04:26:45.002Z,958.50
2018-04-18T04:27:45.003Z,958.45
2018-04-18T04:28:44.983Z,958.49
2018-04-18T04:29:44.997Z,958.53
2018-04-18T04:30:44.969Z,958.49
2018-04-18T04:31:44.965Z,958.52
2018-04-18T04:32:44.961Z,958.49
2018-04-18T04:33:44.970Z,958.52
2018-04-18T04:34:44.962Z,958.59
2018-04-18T04:35:44.947Z,958.55
2018-04-18T04:36:44.953Z,958.51
2018-04-18T04:37:44.942Z,958.53
2018-04-18T04:38:44.940Z,958.55
2018-04-18T04:39:44.931Z,958.55
2018-04-18T04:40:44.932Z,958.53
2018-04-18T04:41:44.919Z,958.56
2018-04-18T04:42:44.913Z,958.57
2018-04-18T04:43:44.911Z,958.60
2018-04-18T04:44:44.951Z,958.62
2018-04-18T04:45:44.902Z,958.60
2018-04-18T04:46:44.898Z,958.60
2018-04-18T04:47:44.893Z,958.60
2018-04-18T04:48:44.896Z,958.60
2018-04-18T04:49:44.888Z,958.64
2018-04-18T04:50:44.878Z,958.62
2018-04-18T04:51:44.874Z,958.63
2018-04-18T04:52:44.874Z,958.63
2018-04-18T04:53:44.865Z,958.65
2018-04-18T04:54:44.856Z,958.68
2018-04-18T04:55:44.862Z,958.66
2018-04-18T04:56:44.860Z,958.66
2018-04-18T04:57:44.854Z,958.66
2018-04-18T04:58:44.847Z,958.66
2018-04-18T04:59:44.844Z,958.71
2018-04-18T05:00:44.831Z,958.69
2018-04-18T05:01:44.837Z,958.71
2018-04-18T05:02:44.835Z,958.71
2018-04-18T05:03:44.818Z,958.68
2018-04-18T05:04:44.811Z,958.74
2018-04-18T05:05:44.804Z,958.70
2018-04-18T05:06:44.809Z,958.73
2018-04-18T05:07:44.803Z,958.77
2018-04-18T05:08:44.797Z,958.76
2018-04-18T05:09:44.794Z,958.76
2018-04-18T05:10:44.796Z,958.81
2018-04-18T05:11:44.777Z,958.80
2018-04-18T05:12:44.789Z,958.78
2018-04-18T05:13:44.774Z,958.82
2018-04-18T05:14:44.774Z,958.84
2018-04-18T05:15:44.770Z,958.86
2018-04-18T05:16:44.764Z,958.82
2018-04-18T05:17:44.771Z,958.82
2018-04-18T05:18:44.769Z,958.81
2018-04-18T05:19:44.769Z,958.81
2018-04-18T05:20:44.737Z,958.86
2018-04-18T05:21:44.745Z,958.82
2018-04-18T05:22:44.746Z,958.86
2018-04-18T05:23:44.742Z,958.80
2018-04-18T05:24:44.732Z,958.82
2018-04-18T05:25:44.728Z,958.87
2018-04-18T05:26:44.725Z,958.85
2018-04-18T05:27:44.718Z,958.85
2018-04-18T05:28:44.707Z,958.88
2018-04-18T05:29:44.707Z,958.90
2018-04-18T05:30:44.714Z,958.95
2018-04-18T05:31:44.700Z,958.93
2018-04-18T05:32:44.709Z,958.96
2018-04-18T05:33:44.704Z,958.92
2018-04-18T05:34:44.710Z,958.93
2018-04-18T05:35:44.684Z,958.99
2018-04-18T05:36:44.694Z,958.99
2018-04-18T05:37:44.678Z,959.02
2018-04-18T05:38:44.676Z,959.03
2018-04-18T05:39:44.668Z,959.01
2018-04-18T05:40:44.671Z,959.00
2018-04-18T05:41:44.670Z,958.98
2018-04-18T05:42:44.674Z,958.96
2018-04-18T05:43:44.663Z,959.00
2018-04-18T05:44:44.660Z,959.00
2018-04-18T05:45:44.666Z,959.10
2018-04-18T05:46:44.654Z,958.99
2018-04-18T05:47:44.639Z,959.02
2018-04-18T05:48:44.638Z,958.98
2018-04-18T05:49:44.641Z,959.02
2018-04-18T05:50:44.625Z,958.98
2018-04-18T05:51:44.635Z,959.02
2018-04-18T05:52:44.623Z,959.03
2018-04-18T05:53:44.640Z,959.02
2018-04-18T05:54:44.629Z,959.05
2018-04-18T05:55:44.615Z,959.03
2018-04-18T05:56:44.610Z,959.02
2018-04-18T05:57:44.629Z,958.99
2018-04-18T05:58:44.615Z,958.97
2018-04-18T05:59:44.605Z,959.01
2018-04-18T06:00:44.607Z,959.00
2018-04-18T06:01:44.592Z,959.02
2018-04-18T06:02:44.598Z,959.01
2018-04-18T06:03:44.587Z,959.04
2018-04-18T06:04:44.640Z,959.03
2018-04-18T06:05:44.589Z,959.01
2018-04-18T06:06:44.574Z,958.99
2018-04-18T06:07:44.577Z,958.99
2018-04-18T06:08:44.577Z,959.01
2018-04-18T06:09:44.561Z,959.02
2018-04-18T06:10:44.565Z,958.99
2018-04-18T06:11:44.564Z,959.05
2018-04-18T06:12:44.560Z,959.00
2018-04-18T06:13:44.562Z,959.00
2018-04-18T06:14:44.558Z,958.95
2018-04-18T06:15:44.554Z,959.01
2018-04-18T06:16:44.546Z,959.01
2018-04-18T06:17:44.560Z,959.00
2018-04-18T06:18:44.549Z,959.05
2018-04-18T06:19:44.546Z,959.05
2018-04-18T06:20:44.538Z,959.00
2018-04-18T06:21:44.539Z,959.07
2018-04-18T06:22:44.533Z,959.05
2018-04-18T06:23:44.538Z,959.04
2018-04-18T06:24:44.525Z,959.03
2018-04-18T06:25:44.528Z,959.07
2018-04-18T06:26:44.524Z,959.07
2018-04-18T06:27:44.518Z,959.08
2018-04-18T06:28:44.516Z,959.06
2018-04-18T06:29:44.507Z,959.06
2018-04-18T06:30:44.510Z,959.11
2018-04-18T06:31:44.499Z,959.05
2018-04-18T06:32:44.509Z,959.05
2018-04-18T06:33:44.499Z,959.13
2018-04-18T06:34:44.501Z,959.09
2018-04-18T06:35:44.494Z,959.09
2018-04-18T06:36:44.495Z,959.11
2018-04-18T06:37:44.491Z,959.11
2018-04-18T06:38:44.484Z,959.15
2018-04-18T06:39:44.489Z,959.17
2018-04-18T06:40:44.479Z,959.12
2018-04-18T06:41:44.478Z,959.16
2018-04-18T06:42:44.476Z,959.09
2018-04-18T06:43:44.482Z,959.13
2018-04-18T06:44:44.474Z,959.15
2018-04-18T06:45:44.470Z,959.15
2018-04-18T06:46:44.468Z,959.19
2018-04-18T06:47:44.462Z,959.19
2018-04-18T06:48:44.464Z,959.23
2018-04-18T06:49:44.469Z,959.20
2018-04-18T06:50:44.471Z,959.15
2018-04-18T06:51:44.457Z,959.14
2018-04-18T06:52:44.455Z,959.19
2018-04-18T06:53:44.453Z,959.23
2018-04-18T06:54:44.441Z,959.14
2018-04-18T06:55:44.449Z,959.11
2018-04-18T06:56:44.446Z,959.13
2018-04-18T06:57:44.447Z,959.17
2018-04-18T06:58:44.450Z,959.16
2018-04-18T06:59:44.447Z,959.17
2018-04-18T07:00:44.450Z,959.16
2018-04-18T07:01:44.441Z,959.18
2018-04-18T07:02:44.453Z,959.18
2018-04-18T07:03:44.438Z,959.18
2018-04-18T07:04:44.437Z,959.16
2018-04-18T07:05:44.428Z,959.13
2018-04-18T07:06:44.426Z,959.16
2018-04-18T07:07:44.425Z,959.12
2018-04-18T07:08:44.429Z,959.09
2018-04-18T07:09:44.428Z,959.14
2018-04-18T07:10:44.425Z,959.13
2018-04-18T07:11:44.420Z,959.12
2018-04-18T07:12:44.417Z,959.05
2018-04-18T07:13:44.427Z,959.11
2018-04-18T07:14:44.424Z,959.17
2018-04-18T07:15:44.420Z,959.19
2018-04-18T07:16:44.422Z,959.16
2018-04-18T07:17:44.415Z,959.13
2018-04-18T07:18:44.413Z,959.12
2018-04-18T07:19:44.421Z,959.16
2018-04-18T07:20:44.405Z,959.15
2018-04-18T07:21:44.412Z,959.13
2018-04-18T07:22:44.411Z,959.22
2018-04-18T07:23:44.406Z,959.19
2018-04-18T07:24:44.407Z,959.15
2018-04-18T07:25:44.401Z,959.18
2018-04-18T07:26:44.410Z,959.28
2018-04-18T07:27:44.406Z,959.27
2018-04-18T07:28:44.412Z,959.25
2018-04-18T07:29:44.428Z,959.34
2018-04-18T07:30:44.417Z,959.38
2018-04-18T07:31:44.413Z,959.37
2018-04-18T07:32:44.420Z,959.28
2018-04-18T07:33:44.420Z,959.33
2018-04-18T07:34:44.428Z,959.38
2018-04-18T07:35:44.426Z,959.36
2018-04-18T07:36:44.437Z,959.39
2018-04-18T07:37:44.434Z,959.38
2018-04-18T07:38:44.443Z,959.37
2018-04-18T07:39:44.451Z,959.35
2018-04-18T07:40:44.466Z,959.38
2018-04-18T07:41:44.473Z,959.42
2018-04-18T07:42:44.477Z,959.40
2018-04-18T07:43:44.490Z,959.39
2018-04-18T07:44:44.504Z,959.41
2018-04-18T07:45:44.513Z,959.38
2018-04-18T07:46:44.517Z,959.38
2018-04-18T07:47:44.521Z,959.43
2018-04-18T07:48:44.538Z,959.41
2018-04-18T07:49:44.547Z,959.43
2018-04-18T07:50:44.553Z,959.31
2018-04-18T07:51:44.566Z,959.40
2018-04-18T07:52:44.593Z,959.39
2018-04-18T07:53:44.589Z,959.41
2018-04-18T07:54:44.613Z,959.40
2018-04-18T07:55:44.614Z,959.37
2018-04-18T07:56:44.615Z,959.39
2018-04-18T07:57:44.626Z,959.38
2018-04-18T07:58:44.638Z,959.41
2018-04-18T07:59:44.656Z,959.38
2018-04-18T08:00:44.655Z,959.37
2018-04-18T08:01:44.667Z,959.41
2018-04-18T08:02:44.689Z,959.37
2018-04-18T08:03:44.698Z,959.41
2018-04-18T08:04:44.717Z,959.44
2018-04-18T08:05:44.726Z,959.44
2018-04-18T08:06:44.732Z,959.42
2018-04-18T08:07:44.740Z,959.40
2018-04-18T08:08:44.758Z,959.45
2018-04-18T08:09:44.774Z,959.47
2018-04-18T08:10:44.778Z,959.45
2018-04-18T08:11:44.787Z,959.48
2018-04-18T08:12:44.808Z,959.47
2018-04-18T08:13:44.823Z,959.40
2018-04-18T08:14:44.837Z,959.43
2018-04-18T08:15:44.866Z,959.45
2018-04-18T08:16:44.860Z,959.43
2018-04-18T08:17:44.873Z,959.48
2018-04-18T08:18:44.889Z,959.46
2018-04-18T08:19:44.897Z,959.41
2018-04-18T08:20:44.933Z,959.41
2018-04-18T08:21:44.928Z,959.41
2018-04-18T08:22:44.936Z,959.38
2018-04-18T08:23:44.951Z,959.50
2018-04-18T08:24:44.970Z,959.45
2018-04-18T08:25:44.985Z,959.42
2018-04-18T08:26:45.001Z,959.41
2018-04-18T08:27:45.012Z,959.37
2018-04-18T08:28:45.022Z,959.49
2018-04-18T08:29:45.039Z,959.46
2018-04-18T08:30:45.062Z,959.49
2018-04-18T08:31:45.072Z,959.43
2018-04-18T08:32:45.084Z,959.41
2018-04-18T08:33:45.102Z,959.43
2018-04-18T08:34:45.097Z,959.42
2018-04-18T08:35:45.114Z,959.44
2018-04-18T08:36:45.134Z,959.47
2018-04-18T08:37:45.151Z,959.40
2018-04-18T08:38:45.160Z,959.45
2018-04-18T08:39:45.182Z,959.46
2018-04-18T08:40:45.209Z,959.48
2018-04-18T08:41:45.212Z,959.54
2018-04-18T08:42:45.219Z,959.51
2018-04-18T08:43:45.231Z,959.50
2018-04-18T08:44:45.246Z,959.48
2018-04-18T08:45:45.274Z,959.51
2018-04-18T08:46:45.268Z,959.47
2018-04-18T08:47:45.283Z,959.52
2018-04-18T08:48:45.303Z,959.47
2018-04-18T08:49:45.315Z,959.51
2018-04-18T08:50:45.333Z,959.44
2018-04-18T08:51:45.344Z,959.46
2018-04-18T08:52:45.367Z,959.47
2018-04-18T08:53:45.383Z,959.51
2018-04-18T08:54:45.397Z,959.53
2018-04-18T08:55:45.413Z,959.56
2018-04-18T08:56:45.425Z,959.49
2018-04-18T08:57:45.437Z,959.48
2018-04-18T08:58:45.450Z,959.50
2018-04-18T08:59:45.479Z,959.47
2018-04-18T09:00:45.487Z,959.44
2018-04-18T09:01:45.501Z,959.47
2018-04-18T09:02:45.515Z,959.48
2018-04-18T09:03:45.526Z,959.42
2018-04-18T09:04:45.545Z,959.40
2018-04-18T09:05:45.564Z,959.45
2018-04-18T09:06:45.567Z,959.46
2018-04-18T09:07:45.597Z,959.50
2018-04-18T09:08:45.599Z,959.39
2018-04-18T09:09:45.648Z,959.41
2018-04-18T09:10:45.631Z,959.44
2018-04-18T09:11:45.646Z,959.46
2018-04-18T09:12:45.668Z,959.43
2018-04-18T09:13:45.685Z,959.41
2018-04-18T09:14:45.689Z,959.43
2018-04-18T09:15:45.713Z,959.44
2018-04-18T09:16:45.732Z,959.43
2018-04-18T09:17:45.757Z,959.41
2018-04-18T09:18:45.769Z,959.51
2018-04-18T09:19:45.787Z,959.45
2018-04-18T09:20:45.814Z,959.38
2018-04-18T09:21:45.817Z,959.42
2018-04-18T09:22:45.840Z,959.38
2018-04-18T09:23:45.857Z,959.40
2018-04-18T09:24:45.864Z,959.36
2018-04-18T09:25:45.886Z,959.40
2018-04-18T09:26:45.896Z,959.42
2018-04-18T09:27:45.921Z,959.46
2018-04-18T09:28:45.935Z,959.35
2018-04-18T09:29:46.004Z,959.40
2018-04-18T09:30:45.983Z,959.40
2018-04-18T09:31:45.979Z,959.37
2018-04-18T09:32:46.002Z,959.42
2018-04-18T09:33:46.014Z,959.42
2018-04-18T09:34:46.036Z,959.40
2018-04-18T09:35:46.088Z,959.41
2018-04-18T09:36:46.065Z,959.44
2018-04-18T09:37:46.083Z,959.40
2018-04-18T09:38:46.103Z,959.35
2018-04-18T09:39:46.145Z,959.36
2018-04-18T09:40:46.136Z,959.43
2018-04-18T09:41:46.145Z,959.36
2018-04-18T09:42:46.177Z,959.32
2018-04-18T09:43:46.179Z,959.33
2018-04-18T09:44:46.198Z,959.30
2018-04-18T09:45:46.217Z,959.26
2018-04-18T09:46:46.232Z,959.34
2018-04-18T09:47:46.251Z,959.35
2018-04-18T09:48:46.268Z,959.26
2018-04-18T09:49:46.284Z,959.27
2018-04-18T09:50:46.304Z,959.29
2018-04-18T09:51:46.309Z,959.32
2018-04-18T09:52:46.333Z,959.31
2018-04-18T09:53:46.354Z,959.32
2018-04-18T09:54:46.367Z,959.30
2018-04-18T09:55:46.379Z,959.27
2018-04-18T09:56:46.396Z,959.33
2018-04-18T09:57:46.409Z,959.33
2018-04-18T09:58:46.429Z,959.28
2018-04-18T09:59:46.442Z,959.25
2018-04-18T10:00:46.462Z,959.22
2018-04-18T10:01:46.480Z,959.34
2018-04-18T10:02:46.485Z,959.30
2018-04-18T10:03:46.512Z,959.26
2018-04-18T10:04:46.521Z,959.28
2018-04-18T10:05:46.545Z,959.25
2018-04-18T10:06:46.550Z,959.24
2018-04-18T10:07:46.575Z,959.25
2018-04-18T10:08:46.592Z,959.26
2018-04-18T10:09:46.606Z,959.28
2018-04-18T10:10:46.631Z,959.23
2018-04-18T10:11:46.641Z,959.32
2018-04-18T10:12:46.648Z,959.19
2018-04-18T10:13:46.672Z,959.23
2018-04-18T10:14:46.686Z,959.26
2018-04-18T10:15:46.702Z,959.25
2018-04-18T10:16:46.717Z,959.22
2018-04-18T10:17:46.744Z,959.32
2018-04-18T10:18:46.754Z,959.16
2018-04-18T10:19:46.774Z,959.27
2018-04-18T10:20:46.788Z,959.29
2018-04-18T10:21:46.794Z,959.23
2018-04-18T10:22:46.825Z,959.24
2018-04-18T10:23:46.838Z,959.25
2018-04-18T10:24:46.854Z,959.26
2018-04-18T10:25:46.854Z,959.24
2018-04-18T10:26:46.881Z,959.20
2018-04-18T10:27:46.908Z,959.25
2018-04-18T10:28:46.924Z,959.21
2018-04-18T10:29:46.943Z,959.25
2018-04-18T10:30:46.943Z,959.25
2018-04-18T10:31:46.975Z,959.22
2018-04-18T10:32:46.983Z,959.23
2018-04-18T10:33:46.995Z,959.17
2018-04-18T10:34:47.016Z,959.25
2018-04-18T10:35:47.019Z,959.25
2018-04-18T10:36:47.049Z,959.25
2018-04-18T10:37:47.073Z,959.18
2018-04-18T10:38:47.082Z,959.25
2018-04-18T10:39:47.101Z,959.17
2018-04-18T10:40:47.107Z,959.17
2018-04-18T10:41:47.140Z,959.21
2018-04-18T10:42:47.132Z,959.12
2018-04-18T10:43:47.157Z,959.16
2018-04-18T10:44:47.191Z,959.10
2018-04-18T10:45:47.195Z,958.91
2018-04-18T10:46:47.206Z,959.03
2018-04-18T10:47:47.239Z,959.11
2018-04-18T10:48:47.248Z,959.12
2018-04-18T10:49:47.256Z,959.10
2018-04-18T10:50:47.284Z,959.05
2018-04-18T10:51:47.282Z,959.06
2018-04-18T10:52:47.306Z,959.05
2018-04-18T10:53:47.325Z,959.11
2018-04-18T10:54:47.333Z,959.03
2018-04-18T10:55:47.350Z,959.04
2018-04-18T10:56:47.375Z,959.03
2018-04-18T10:57:47.388Z,958.87
2018-04-18T10:58:47.397Z,959.01
2018-04-18T10:59:47.414Z,958.97
2018-04-18T11:00:47.438Z,958.90
2018-04-18T11:01:47.452Z,959.00
2018-04-18T11:02:47.467Z,959.03
2018-04-18T11:03:47.484Z,959.09
2018-04-18T11:04:47.517Z,959.02
2018-04-18T11:05:47.516Z,959.05
2018-04-18T11:06:47.522Z,959.05
2018-04-18T11:07:47.551Z,959.02
2018-04-18T11:08:47.565Z,958.92
2018-04-18T11:09:47.581Z,958.98
2018-04-18T11:10:47.595Z,959.04
2018-04-18T11:11:47.608Z,959.07
2018-04-18T11:12:47.627Z,959.03
2018-04-18T11:13:47.642Z,959.05
2018-04-18T11:14:47.649Z,958.99
2018-04-18T11:15:47.664Z,959.02
2018-04-18T11:16:47.691Z,959.01
2018-04-18T11:17:47.708Z,958.95
2018-04-18T11:18:47.717Z,958.97
2018-04-18T11:19:47.733Z,959.02
2018-04-18T11:20:47.751Z,959.05
2018-04-18T11:21:47.756Z,958.89
2018-04-18T11:22:47.789Z,959.00
2018-04-18T11:23:47.793Z,958.95
2018-04-18T11:24:47.817Z,958.95
2018-04-18T11:25:47.833Z,958.96
2018-04-18T11:26:47.840Z,958.90
2018-04-18T11:27:47.874Z,958.88
2018-04-18T11:28:47.911Z,958.93
2018-04-18T11:29:47.885Z,958.83
2018-04-18T11:30:47.903Z,958.85
2018-04-18T11:31:47.922Z,958.87
2018-04-18T11:32:47.937Z,959.00
2018-04-18T11:33:47.957Z,958.75
2018-04-18T11:34:47.964Z,958.75
2018-04-18T11:35:47.988Z,958.87
2018-04-18T11:36:48.005Z,958.86
2018-04-18T11:37:48.020Z,958.84
2018-04-18T11:38:48.027Z,958.83
2018-04-18T11:39:48.083Z,958.86
2018-04-18T11:40:48.065Z,958.77
2018-04-18T11:41:48.077Z,958.79
2018-04-18T11:42:48.090Z,958.81
2018-04-18T11:43:48.104Z,958.84
2018-04-18T11:44:48.134Z,958.84
2018-04-18T11:45:48.149Z,958.94
2018-04-18T11:46:48.160Z,958.83
2018-04-18T11:47:48.168Z,958.89
2018-04-18T11:48:48.190Z,958.67
2018-04-18T11:49:48.206Z,958.78
2018-04-18T11:50:48.212Z,958.72
2018-04-18T11:51:48.242Z,958.71
2018-04-18T11:52:48.255Z,958.66
2018-04-18T11:53:48.260Z,958.79
2018-04-18T11:54:48.328Z,958.80
2018-04-18T11:55:48.298Z,958.78
2018-04-18T11:56:48.313Z,958.80
2018-04-18T11:57:48.319Z,958.78
2018-04-18T11:58:48.368Z,958.82
2018-04-18T11:59:48.351Z,958.77
2018-04-18T12:00:48.368Z,958.77
2018-04-18T12:01:48.380Z,958.74
2018-04-18T12:02:48.402Z,958.76
2018-04-18T12:03:48.412Z,958.81
2018-04-18T12:04:48.431Z,958.81
2018-04-18T12:05:48.450Z,958.89
2018-04-18T12:06:48.450Z,958.79
2018-04-18T12:07:48.474Z,958.76
2018-04-18T12:08:48.495Z,958.76
2018-04-18T12:09:48.505Z,958.74
2018-04-18T12:10:48.524Z,958.78
2018-04-18T12:11:48.530Z,958.77
2018-04-18T12:12:48.551Z,958.75
2018-04-18T12:13:48.569Z,958.73
2018-04-18T12:14:48.584Z,958.70
2018-04-18T12:15:48.601Z,958.72
2018-04-18T12:16:48.616Z,958.78
2018-04-18T12:17:48.625Z,958.76
2018-04-18T12:18:48.642Z,958.77
2018-04-18T12:19:48.658Z,958.70
2018-04-18T12:20:48.675Z,958.71
2018-04-18T12:21:48.685Z,958.71
2018-04-18T12:22:48.690Z,958.73
2018-04-18T12:23:48.721Z,958.65
2018-04-18T12:24:48.727Z,958.73
2018-04-18T12:25:48.729Z,958.78
2018-04-18T12:26:48.758Z,958.74
2018-04-18T12:27:48.768Z,958.70
2018-04-18T12:28:48.798Z,958.76
2018-04-18T12:29:48.779Z,958.55
2018-04-18T12:30:48.789Z,958.61
2018-04-18T12:31:48.812Z,958.61
2018-04-18T12:32:48.824Z,958.61
2018-04-18T12:33:48.844Z,958.63
2018-04-18T12:34:48.838Z,958.58
2018-04-18T12:35:48.851Z,958.56
2018-04-18T12:36:48.871Z,958.62
2018-04-18T12:37:48.870Z,958.62
2018-04-18T12:38:48.870Z,958.65
2018-04-18T12:39:48.887Z,958.69
2018-04-18T12:40:48.887Z,958.65
2018-04-18T12:41:48.879Z,958.66
2018-04-18T12:42:48.894Z,958.69
2018-04-18T12:43:48.936Z,958.38
2018-04-18T12:44:48.925Z,958.61
2018-04-18T12:45:48.910Z,958.58
2018-04-18T12:46:48.916Z,958.53
2018-04-18T12:47:48.921Z,958.60
2018-04-18T12:48:48.923Z,958.59
2018-04-18T12:49:48.934Z,958.54
2018-04-18T12:50:48.932Z,958.53
2018-04-18T12:51:48.931Z,958.42
2018-04-18T12:52:48.937Z,958.56
2018-04-18T12:53:48.935Z,958.55
2018-04-18T12:54:48.937Z,958.48
2018-04-18T12:55:48.947Z,958.60
2018-04-18T12:56:48.996Z,958.51
2018-04-18T12:57:48.948Z,958.57
2018-04-18T12:58:48.956Z,958.58
2018-04-18T12:59:48.947Z,958.44
2018-04-18T13:00:48.962Z,958.51
2018-04-18T13:01:48.960Z,958.54
2018-04-18T13:02:48.958Z,958.48
2018-04-18T13:03:48.993Z,958.45
2018-04-18T13:04:48.968Z,958.46
2018-04-18T13:05:48.972Z,958.43
2018-04-18T13:06:48.958Z,958.42
2018-04-18T13:07:48.968Z,958.39
2018-04-18T13:08:48.974Z,958.41
2018-04-18T13:09:48.977Z,958.36
2018-04-18T13:10:48.965Z,958.35
2018-04-18T13:11:48.966Z,958.39
2018-04-18T13:12:48.986Z,958.28
2018-04-18T13:13:48.977Z,958.31
2018-04-18T13:14:48.995Z,958.38
2018-04-18T13:15:48.978Z,958.39
2018-04-18T13:16:48.984Z,958.36
2018-04-18T13:17:48.989Z,958.40
2018-04-18T13:18:48.994Z,958.34
2018-04-18T13:19:48.993Z,958.34
2018-04-18T13:20:49.002Z,958.39
2018-04-18T13:21:48.982Z,958.25